createdAt,value
2023-02-08T00:01:45.443Z,4.70
2023-02-08T00:06:48.169Z,6.60
2023-02-08T00:11:50.949Z,4.40
2023-02-08T00:16:53.662Z,6.40
2023-02-08T00:21:56.444Z,4.00
2023-02-08T00:26:59.142Z,7.50
2023-02-08T00:32:02.259Z,6.70
2023-02-08T00:37:06.974Z,4.10
2023-02-08T00:42:10.210Z,4.00
2023-02-08T00:47:12.971Z,6.80
2023-02-08T00:52:16.316Z,7.20
2023-02-08T00:57:19.030Z,7.00
2023-02-08T01:02:21.736Z,8.10
2023-02-08T01:07:24.440Z,6.20
2023-02-08T01:12:27.424Z,5.70
2023-02-08T01:17:30.637Z,7.80
2023-02-08T01:22:33.356Z,4.10
2023-02-08T01:27:36.556Z,5.60
2023-02-08T01:32:39.345Z,7.70
2023-02-08T01:37:42.635Z,7.90
2023-02-08T01:42:45.358Z,5.70
2023-02-08T01:47:52.467Z,7.10
2023-02-08T01:52:55.471Z,6.40
2023-02-08T01:58:01.411Z,8.10
2023-02-08T02:03:05.577Z,3.80
2023-02-08T02:08:09.607Z,4.70
2023-02-08T02:13:19.466Z,5.00
2023-02-08T02:18:26.889Z,6.80
2023-02-08T02:24:07.586Z,8.70
2023-02-08T02:29:30.938Z,8.30
2023-02-08T02:35:02.811Z,7.40
2023-02-08T02:40:53.153Z,8.30
2023-02-08T02:46:08.070Z,8.60
2023-02-08T02:51:17.400Z,8.70
2023-02-08T02:56:27.511Z,8.30
2023-02-08T03:01:30.387Z,7.60
2023-02-08T03:06:51.402Z,7.20
2023-02-08T03:12:09.108Z,8.50
2023-02-08T03:17:27.632Z,6.50
2023-02-08T03:22:58.477Z,7.10
2023-02-08T03:28:32.609Z,8.40
2023-02-08T03:33:48.350Z,9.30
2023-02-08T03:38:52.668Z,7.20
2023-02-08T03:44:18.522Z,8.90
2023-02-08T03:49:30.535Z,8.10
2023-02-08T03:54:40.188Z,9.70
2023-02-08T03:59:46.760Z,7.40
2023-02-08T04:04:52.144Z,9.30
2023-02-08T04:09:54.945Z,5.60
2023-02-08T04:14:57.871Z,8.60
2023-02-08T04:20:00.690Z,8.30
2023-02-08T04:25:03.775Z,6.70
2023-02-08T04:30:07.001Z,8.40
2023-02-08T04:35:09.905Z,5.20
2023-02-08T04:40:12.685Z,10.90
2023-02-08T04:45:16.175Z,12.90
2023-02-08T04:50:19.134Z,8.30
2023-02-08T04:55:22.461Z,8.80
2023-02-08T05:00:25.620Z,6.50
2023-02-08T05:05:28.737Z,6.80
2023-02-08T05:10:31.633Z,8.20
2023-02-08T05:15:34.946Z,6.50
2023-02-08T05:20:37.787Z,9.00
2023-02-08T05:25:42.191Z,7.70
2023-02-08T05:30:47.147Z,8.60
2023-02-08T05:35:49.855Z,8.10
2023-02-08T05:40:52.546Z,8.00
2023-02-08T05:45:55.335Z,7.90
2023-02-08T05:51:00.172Z,6.10
2023-02-08T05:56:02.911Z,6.60
2023-02-08T06:01:13.464Z,5.40
2023-02-08T06:06:17.104Z,8.70
2023-02-08T06:11:19.820Z,9.50
2023-02-08T06:16:22.605Z,6.00
2023-02-08T06:21:25.410Z,6.90
2023-02-08T06:26:28.188Z,8.10
2023-02-08T06:31:31.795Z,9.00
2023-02-08T06:36:34.607Z,8.90
2023-02-08T06:41:37.328Z,9.10
2023-02-08T06:46:40.118Z,12.30
2023-02-08T06:51:43.114Z,19.60
2023-02-08T06:56:46.026Z,20.50
2023-02-08T07:01:48.824Z,15.60
2023-02-08T07:06:51.851Z,14.80
2023-02-08T07:11:54.632Z,11.10
2023-02-08T07:16:57.617Z,12.10
2023-02-08T07:22:08.216Z,12.20
2023-02-08T07:27:13.396Z,14.80
2023-02-08T07:32:16.204Z,15.20
2023-02-08T07:37:19.240Z,15.00
2023-02-08T07:42:22.605Z,15.60
2023-02-08T07:47:25.508Z,14.80
2023-02-08T07:52:29.254Z,15.40
2023-02-08T07:57:32.037Z,18.10
2023-02-08T08:02:35.146Z,16.70
2023-02-08T08:07:38.177Z,12.00
2023-02-08T08:12:41.018Z,13.10
2023-02-08T08:17:43.740Z,11.40
2023-02-08T08:22:47.103Z,10.70
2023-02-08T08:27:50.043Z,12.40
2023-02-08T08:32:52.999Z,11.90
2023-02-08T08:37:55.732Z,11.00
2023-02-08T08:42:58.583Z,11.50
2023-02-08T08:48:01.903Z,10.90
2023-02-08T08:53:04.654Z,10.50
2023-02-08T08:58:07.400Z,10.30
2023-02-08T09:03:10.597Z,12.20
2023-02-08T09:08:13.979Z,10.90
2023-02-08T09:13:19.933Z,11.90
2023-02-08T09:18:22.804Z,10.90
2023-02-08T09:23:25.562Z,13.10
2023-02-08T09:28:28.301Z,13.10
2023-02-08T09:33:31.027Z,10.50
2023-02-08T09:38:34.802Z,11.40
2023-02-08T09:44:10.399Z,9.60
2023-02-08T09:54:36.506Z,13.80
2023-02-08T09:59:46.089Z,13.70
2023-02-08T10:05:05.733Z,14.10
2023-02-08T10:10:19.101Z,14.50
2023-02-08T10:15:36.536Z,14.90
2023-02-08T10:20:45.644Z,15.20
2023-02-08T10:26:14.819Z,13.90
2023-02-08T10:31:46.339Z,13.80
2023-02-08T10:36:49.240Z,14.40
2023-02-08T10:41:52.513Z,16.30
2023-02-08T10:47:21.522Z,16.90
2023-02-08T10:52:24.810Z,15.50
2023-02-08T10:57:34.325Z,18.30
2023-02-08T11:02:42.834Z,18.80
2023-02-08T11:07:46.316Z,16.40
2023-02-08T11:13:16.997Z,19.50
2023-02-08T11:18:36.652Z,18.60
2023-02-08T11:23:43.500Z,16.60
2023-02-08T11:29:19.530Z,16.80
2023-02-08T11:34:36.007Z,16.80
2023-02-08T11:39:49.772Z,17.00
2023-02-08T11:44:54.424Z,18.20
2023-02-08T11:50:03.953Z,17.70
2023-02-08T11:55:18.854Z,13.40
2023-02-08T12:00:25.645Z,17.20
2023-02-08T12:05:43.249Z,14.90
2023-02-08T12:11:37.019Z,13.60
2023-02-08T12:17:15.324Z,13.40
2023-02-08T12:22:26.840Z,13.70
2023-02-08T12:27:51.463Z,12.90
2023-02-08T12:33:17.096Z,14.00
2023-02-08T12:39:19.969Z,13.30
2023-02-08T12:44:43.473Z,12.90
2023-02-08T12:49:49.253Z,12.90
2023-02-08T12:54:57.917Z,13.20
2023-02-08T13:00:15.742Z,14.10
2023-02-08T13:05:22.348Z,13.60
2023-02-08T13:10:38.241Z,12.30
2023-02-08T13:15:52.213Z,14.30
2023-02-08T13:21:11.703Z,13.40
2023-02-08T13:26:36.100Z,14.10
2023-02-08T13:31:42.019Z,12.40
2023-02-08T13:36:55.903Z,12.00
2023-02-08T13:41:58.972Z,11.90
2023-02-08T13:47:02.399Z,10.70
2023-02-08T13:52:05.157Z,9.60
2023-02-08T13:57:59.391Z,10.50
2023-02-08T14:03:23.918Z,8.70
2023-02-08T14:08:57.417Z,8.80
2023-02-08T14:14:02.201Z,9.70
2023-02-08T14:19:18.211Z,9.20
2023-02-08T14:24:27.124Z,12.00
2023-02-08T14:29:29.885Z,9.60
2023-02-08T14:34:40.614Z,11.10
2023-02-08T14:39:43.329Z,12.60
2023-02-08T14:44:49.027Z,11.30
2023-02-08T14:50:05.101Z,11.40
2023-02-08T14:55:20.390Z,14.00
2023-02-08T15:00:32.868Z,16.10
2023-02-08T15:05:43.875Z,16.20
2023-02-08T15:10:47.836Z,17.00
2023-02-08T15:15:54.508Z,18.70
2023-02-08T15:21:04.294Z,15.50
2023-02-08T15:31:30.227Z,14.20
2023-02-08T15:36:36.294Z,17.70
2023-02-08T15:41:39.051Z,16.90
2023-02-08T15:46:43.943Z,21.70
2023-02-08T15:51:48.555Z,21.20
2023-02-08T15:57:06.518Z,18.20
2023-02-08T16:02:34.086Z,16.10
2023-02-08T16:07:39.738Z,18.50
2023-02-08T16:12:44.912Z,20.30
2023-02-08T16:17:48.878Z,14.20
2023-02-08T16:23:04.020Z,19.00
2023-02-08T16:28:22.057Z,17.00
2023-02-08T16:33:25.638Z,15.70
2023-02-08T16:38:34.233Z,14.60
2023-02-08T16:43:38.107Z,17.90
2023-02-08T16:48:45.183Z,18.20
2023-02-08T16:53:53.894Z,17.60
2023-02-08T16:58:56.638Z,13.00
2023-02-08T17:03:59.692Z,16.60
2023-02-08T17:09:04.901Z,20.70
2023-02-08T17:14:08.937Z,17.10
2023-02-08T17:19:17.381Z,25.60
2023-02-08T17:24:22.220Z,20.20
2023-02-08T17:29:24.991Z,22.90
2023-02-08T17:34:28.425Z,23.00
2023-02-08T17:39:31.129Z,11.60
2023-02-08T17:44:34.168Z,15.50
2023-02-08T17:49:37.031Z,23.20
2023-02-08T17:54:39.729Z,19.10
2023-02-08T17:59:42.524Z,20.50
2023-02-08T18:04:45.331Z,20.80
2023-02-08T18:09:48.133Z,21.90
2023-02-08T18:14:50.909Z,20.20
2023-02-08T18:19:53.574Z,23.90
2023-02-08T18:24:57.057Z,18.80
2023-02-08T18:30:00.216Z,26.30
2023-02-08T18:35:04.239Z,23.80
2023-02-08T18:40:08.801Z,21.90
2023-02-08T18:45:11.562Z,19.80
2023-02-08T18:50:14.511Z,12.90
2023-02-08T18:55:17.334Z,19.70
2023-02-08T19:00:20.905Z,16.70
2023-02-08T19:05:23.553Z,14.80
2023-02-08T19:10:26.236Z,15.90
2023-02-08T19:15:28.944Z,18.80
2023-02-08T19:20:35.235Z,20.00
2023-02-08T19:25:39.270Z,11.10
2023-02-08T19:30:42.670Z,11.50
2023-02-08T19:35:45.828Z,12.80
2023-02-08T19:40:54.725Z,18.40
2023-02-08T19:45:58.679Z,15.80
2023-02-08T19:51:02.089Z,11.80
2023-02-08T19:56:10.052Z,16.50
2023-02-08T20:01:17.043Z,13.10
2023-02-08T20:06:23.731Z,16.00
2023-02-08T20:11:29.170Z,13.00
2023-02-08T20:16:33.814Z,8.70
2023-02-08T20:21:39.902Z,13.60
2023-02-08T20:26:45.174Z,16.70
2023-02-08T20:31:52.446Z,13.00
2023-02-08T20:37:06.918Z,16.10
2023-02-08T20:42:10.316Z,17.90
2023-02-08T20:47:14.067Z,16.50
2023-02-08T20:52:18.002Z,16.50
2023-02-08T20:57:20.903Z,16.50
2023-02-08T21:02:24.187Z,16.00
2023-02-08T21:07:26.936Z,12.80
2023-02-08T21:12:30.161Z,13.00
2023-02-08T21:17:33.730Z,10.40
2023-02-08T21:22:36.769Z,9.00
2023-02-08T21:27:39.492Z,11.60
2023-02-08T21:32:43.819Z,11.20
2023-02-08T21:37:46.632Z,11.40
2023-02-08T21:42:49.491Z,7.60
2023-02-08T21:47:52.296Z,11.10
2023-02-08T21:53:13.601Z,10.70
2023-02-08T21:58:16.397Z,11.00
2023-02-08T22:03:19.368Z,11.00
2023-02-08T22:08:22.240Z,13.50
2023-02-08T22:13:24.952Z,18.20
2023-02-08T22:18:28.045Z,18.00
2023-02-08T22:23:30.779Z,15.00
2023-02-08T22:28:33.520Z,15.10
2023-02-08T22:33:37.070Z,15.20
2023-02-08T22:38:39.896Z,15.60
2023-02-08T22:43:43.076Z,14.40
2023-02-08T22:48:46.086Z,12.90
2023-02-08T22:53:48.783Z,11.80
2023-02-08T22:58:51.796Z,11.10
2023-02-08T23:03:54.544Z,9.60
2023-02-08T23:08:57.976Z,13.90
2023-02-08T23:14:00.935Z,12.80
2023-02-08T23:19:04.472Z,7.20
2023-02-08T23:24:07.533Z,9.80
2023-02-08T23:29:10.340Z,8.20
2023-02-08T23:34:13.038Z,9.00
2023-02-08T23:39:16.552Z,5.20
2023-02-08T23:44:19.391Z,8.00
2023-02-08T23:49:22.124Z,11.50
2023-02-08T23:54:24.848Z,10.80
2023-02-08T23:59:28.284Z,8.50
